sensor_id;sensor_type;location;lat;lon;timestamp;pressure;altitude;pressure_sealevel;temperature;humidity
11347;BME280;5728;42.722;23.258;2023-04-27T00:00:51;94471.25;;;7.36;65.72
11347;BME280;5728;42.722;23.258;2023-04-27T00:03:18;94472.06;;;7.41;65.84
11347;BME280;5728;42.722;23.258;2023-04-27T00:05:45;94466.16;;;7.29;65.74
11347;BME280;5728;42.722;23.258;2023-04-27T00:08:13;94470.47;;;7.27;65.98
11347;BME280;5728;42.722;23.258;2023-04-27T00:10:40;94470.53;;;7.22;65.86
11347;BME280;5728;42.722;23.258;2023-04-27T00:13:07;94477.44;;;7.13;66.71
11347;BME280;5728;42.722;23.258;2023-04-27T00:15:33;94478.41;;;6.99;67.21
11347;BME280;5728;42.722;23.258;2023-04-27T00:18:00;94480.88;;;7.13;66.88
11347;BME280;5728;42.722;23.258;2023-04-27T00:20:27;94481.06;;;6.87;67.25
11347;BME280;5728;42.722;23.258;2023-04-27T00:22:54;94482.75;;;6.90;67.84
11347;BME280;5728;42.722;23.258;2023-04-27T00:25:22;94493.09;;;6.87;67.80
11347;BME280;5728;42.722;23.258;2023-04-27T00:27:49;94484.50;;;6.86;68.32
11347;BME280;5728;42.722;23.258;2023-04-27T00:30:16;94477.69;;;6.75;68.21
11347;BME280;5728;42.722;23.258;2023-04-27T00:32:42;94483.69;;;6.81;68.49
11347;BME280;5728;42.722;23.258;2023-04-27T00:35:09;94488.81;;;6.86;68.15
11347;BME280;5728;42.722;23.258;2023-04-27T00:37:36;94475.13;;;6.76;68.10
11347;BME280;5728;42.722;23.258;2023-04-27T00:40:04;94474.31;;;6.67;68.80
11347;BME280;5728;42.722;23.258;2023-04-27T00:42:33;94475.97;;;6.75;68.01
11347;BME280;5728;42.722;23.258;2023-04-27T00:45:00;94471.78;;;6.61;68.42
11347;BME280;5728;42.722;23.258;2023-04-27T00:47:28;94470.91;;;6.62;68.28
11347;BME280;5728;42.722;23.258;2023-04-27T00:49:55;94481.22;;;6.59;68.58
11347;BME280;5728;42.722;23.258;2023-04-27T00:52:22;94483.84;;;6.48;69.02
11347;BME280;5728;42.722;23.258;2023-04-27T00:54:50;94482.16;;;6.42;69.30
11347;BME280;5728;42.722;23.258;2023-04-27T00:57:17;94495.00;;;6.47;68.97
11347;BME280;5728;42.722;23.258;2023-04-27T00:59:45;94485.63;;;6.41;69.79
11347;BME280;5728;42.722;23.258;2023-04-27T01:02:12;94477.03;;;6.38;69.33
11347;BME280;5728;42.722;23.258;2023-04-27T01:04:39;94480.50;;;6.28;69.73
11347;BME280;5728;42.722;23.258;2023-04-27T01:07:06;94476.25;;;6.18;69.81
11347;BME280;5728;42.722;23.258;2023-04-27T01:09:33;94484.81;;;6.17;70.13
11347;BME280;5728;42.722;23.258;2023-04-27T01:12:00;94496.78;;;6.30;69.89
11347;BME280;5728;42.722;23.258;2023-04-27T01:14:27;94494.22;;;6.30;69.44
11347;BME280;5728;42.722;23.258;2023-04-27T01:16:57;94487.41;;;6.18;70.07
11347;BME280;5728;42.722;23.258;2023-04-27T01:19:24;94492.59;;;6.14;70.83
11347;BME280;5728;42.722;23.258;2023-04-27T01:21:51;94497.69;;;6.23;69.80
11347;BME280;5728;42.722;23.258;2023-04-27T01:24:19;94489.13;;;6.12;70.21
11347;BME280;5728;42.722;23.258;2023-04-27T01:26:46;94489.16;;;6.09;70.54
11347;BME280;5728;42.722;23.258;2023-04-27T01:29:14;94502.03;;;6.10;70.59
11347;BME280;5728;42.722;23.258;2023-04-27T01:31:40;94500.28;;;6.12;70.29
11347;BME280;5728;42.722;23.258;2023-04-27T01:34:07;94503.75;;;6.02;71.29
11347;BME280;5728;42.722;23.258;2023-04-27T01:36:34;94494.31;;;6.06;70.56
11347;BME280;5728;42.722;23.258;2023-04-27T01:39:01;94497.72;;;6.11;70.27
11347;BME280;5728;42.722;23.258;2023-04-27T01:41:30;94508.84;;;6.22;69.93
11347;BME280;5728;42.722;23.258;2023-04-27T01:43:56;94508.88;;;6.16;70.15
11347;BME280;5728;42.722;23.258;2023-04-27T01:46:23;94517.47;;;6.07;70.67
11347;BME280;5728;42.722;23.258;2023-04-27T01:48:50;94506.34;;;5.98;70.76
11347;BME280;5728;42.722;23.258;2023-04-27T01:51:16;94506.34;;;6.01;70.89
11347;BME280;5728;42.722;23.258;2023-04-27T01:53:43;94530.34;;;6.00;70.21
11347;BME280;5728;42.722;23.258;2023-04-27T01:56:10;94508.03;;;6.02;70.62
11347;BME280;5728;42.722;23.258;2023-04-27T01:58:38;94508.06;;;6.03;70.20
11347;BME280;5728;42.722;23.258;2023-04-27T02:01:04;94508.03;;;6.05;70.03
11347;BME280;5728;42.722;23.258;2023-04-27T02:03:31;94513.19;;;6.08;70.59
11347;BME280;5728;42.722;23.258;2023-04-27T02:05:58;94503.78;;;5.93;70.39
11347;BME280;5728;42.722;23.258;2023-04-27T02:08:25;94514.91;;;5.81;70.88
11347;BME280;5728;42.722;23.258;2023-04-27T02:10:51;94508.06;;;5.99;70.83
11347;BME280;5728;42.722;23.258;2023-04-27T02:13:18;94520.06;;;5.77;70.52
11347;BME280;5728;42.722;23.258;2023-04-27T02:15:46;94520.91;;;5.71;70.46
11347;BME280;5728;42.722;23.258;2023-04-27T02:18:13;94519.22;;;5.96;69.88
11347;BME280;5728;42.722;23.258;2023-04-27T02:20:40;94520.94;;;5.90;70.76
11347;BME280;5728;42.722;23.258;2023-04-27T02:23:07;94514.91;;;5.81;70.21
11347;BME280;5728;42.722;23.258;2023-04-27T02:25:35;94519.25;;;5.86;70.66
11347;BME280;5728;42.722;23.258;2023-04-27T02:28:02;94529.50;;;5.75;70.30
11347;BME280;5728;42.722;23.258;2023-04-27T02:30:29;94524.38;;;5.66;70.51
11347;BME280;5728;42.722;23.258;2023-04-27T02:32:59;94524.34;;;5.72;70.67
11347;BME280;5728;42.722;23.258;2023-04-27T02:35:26;94526.94;;;5.70;70.63
11347;BME280;5728;42.722;23.258;2023-04-27T02:37:52;94532.94;;;5.69;70.14
11347;BME280;5728;42.722;23.258;2023-04-27T02:40:19;94528.63;;;5.74;70.85
11347;BME280;5728;42.722;23.258;2023-04-27T02:42:46;94542.38;;;5.54;70.56
11347;BME280;5728;42.722;23.258;2023-04-27T02:45:12;94530.38;;;5.57;70.99
11347;BME280;5728;42.722;23.258;2023-04-27T02:47:39;94537.22;;;5.61;71.04
11347;BME280;5728;42.722;23.258;2023-04-27T02:50:08;94540.69;;;5.63;70.92
11347;BME280;5728;42.722;23.258;2023-04-27T02:52:35;94531.25;;;5.46;71.42
11347;BME280;5728;42.722;23.258;2023-04-27T02:55:02;94530.38;;;5.39;71.42
11347;BME280;5728;42.722;23.258;2023-04-27T02:57:28;94538.09;;;5.41;71.88
11347;BME280;5728;42.722;23.258;2023-04-27T02:59:55;94536.38;;;5.41;71.91
11347;BME280;5728;42.722;23.258;2023-04-27T03:02:22;94533.78;;;5.41;72.09
11347;BME280;5728;42.722;23.258;2023-04-27T03:04:51;94546.66;;;5.47;71.76
11347;BME280;5728;42.722;23.258;2023-04-27T03:07:21;94548.38;;;5.56;72.10
11347;BME280;5728;42.722;23.258;2023-04-27T03:09:48;94540.66;;;5.36;72.52
11347;BME280;5728;42.722;23.258;2023-04-27T03:12:14;94544.94;;;5.34;72.21
11347;BME280;5728;42.722;23.258;2023-04-27T03:14:41;94544.09;;;5.47;71.42
11347;BME280;5728;42.722;23.258;2023-04-27T03:17:08;94550.94;;;5.39;72.49
11347;BME280;5728;42.722;23.258;2023-04-27T03:19:34;94551.78;;;5.34;72.59
11347;BME280;5728;42.722;23.258;2023-04-27T03:22:01;94552.66;;;5.16;72.43
11347;BME280;5728;42.722;23.258;2023-04-27T03:24:29;94558.66;;;5.27;72.86
11347;BME280;5728;42.722;23.258;2023-04-27T03:26:57;94561.22;;;5.23;72.12
11347;BME280;5728;42.722;23.258;2023-04-27T03:29:24;94562.06;;;5.22;72.92
11347;BME280;5728;42.722;23.258;2023-04-27T03:31:50;94561.19;;;5.09;72.94
11347;BME280;5728;42.722;23.258;2023-04-27T03:34:17;94559.47;;;5.05;72.58
11347;BME280;5728;42.722;23.258;2023-04-27T03:36:45;94567.16;;;4.94;73.96
11347;BME280;5728;42.722;23.258;2023-04-27T03:39:12;94570.59;;;4.98;73.42
11347;BME280;5728;42.722;23.258;2023-04-27T03:41:40;94573.19;;;5.10;72.93
11347;BME280;5728;42.722;23.258;2023-04-27T03:44:07;94578.28;;;4.87;73.42
11347;BME280;5728;42.722;23.258;2023-04-27T03:46:34;94574.00;;;4.89;74.48
11347;BME280;5728;42.722;23.258;2023-04-27T03:49:00;94579.97;;;4.84;74.05
11347;BME280;5728;42.722;23.258;2023-04-27T03:51:27;94586.00;;;4.86;74.19
11347;BME280;5728;42.722;23.258;2023-04-27T03:53:56;94586.81;;;4.76;74.31
11347;BME280;5728;42.722;23.258;2023-04-27T03:56:23;94589.41;;;4.83;74.34
11347;BME280;5728;42.722;23.258;2023-04-27T03:58:51;94588.50;;;4.77;74.46
11347;BME280;5728;42.722;23.258;2023-04-27T04:01:17;94597.97;;;4.88;74.19
11347;BME280;5728;42.722;23.258;2023-04-27T04:03:46;94600.56;;;4.99;73.53
11347;BME280;5728;42.722;23.258;2023-04-27T04:06:13;94603.16;;;4.96;73.86
11347;BME280;5728;42.722;23.258;2023-04-27T04:08:40;94607.41;;;4.91;73.84
11347;BME280;5728;42.722;23.258;2023-04-27T04:11:07;94611.69;;;4.95;73.65
11347;BME280;5728;42.722;23.258;2023-04-27T04:13:34;94613.34;;;4.78;74.53
11347;BME280;5728;42.722;23.258;2023-04-27T04:16:04;94615.06;;;4.82;74.21
11347;BME280;5728;42.722;23.258;2023-04-27T04:18:31;94615.91;;;4.84;74.25
11347;BME280;5728;42.722;23.258;2023-04-27T04:20:58;94639.13;;;4.96;74.57
11347;BME280;5728;42.722;23.258;2023-04-27T04:23:25;94627.16;;;5.13;73.32
11347;BME280;5728;42.722;23.258;2023-04-27T04:25:53;94630.66;;;5.33;73.11
11347;BME280;5728;42.722;23.258;2023-04-27T04:28:20;94626.38;;;5.38;72.67
11347;BME280;5728;42.722;23.258;2023-04-27T04:30:48;94624.63;;;5.34;72.61
11347;BME280;5728;42.722;23.258;2023-04-27T04:33:16;94629.81;;;5.55;72.31
11347;BME280;5728;42.722;23.258;2023-04-27T04:35:43;94628.09;;;5.57;71.79
11347;BME280;5728;42.722;23.258;2023-04-27T04:38:10;94635.84;;;5.78;71.76
11347;BME280;5728;42.722;23.258;2023-04-27T04:40:37;94634.16;;;5.93;71.53
11347;BME280;5728;42.722;23.258;2023-04-27T04:43:04;94637.59;;;5.86;71.41
11347;BME280;5728;42.722;23.258;2023-04-27T04:45:31;94635.00;;;5.92;71.72
11347;BME280;5728;42.722;23.258;2023-04-27T04:47:58;94633.31;;;6.09;70.98
11347;BME280;5728;42.722;23.258;2023-04-27T04:50:28;94640.16;;;6.19;70.48
11347;BME280;5728;42.722;23.258;2023-04-27T04:52:54;94645.25;;;6.40;69.86
11347;BME280;5728;42.722;23.258;2023-04-27T04:55:21;94648.59;;;6.72;69.52
11347;BME280;5728;42.722;23.258;2023-04-27T04:57:48;94655.44;;;6.88;68.54
11347;BME280;5728;42.722;23.258;2023-04-27T05:00:15;94646.88;;;6.89;68.79
11347;BME280;5728;42.722;23.258;2023-04-27T05:02:42;94658.84;;;6.99;68.18
11347;BME280;5728;42.722;23.258;2023-04-27T05:05:09;94651.03;;;7.19;67.89
11347;BME280;5728;42.722;23.258;2023-04-27T05:07:37;94660.63;;;6.79;68.35
11347;BME280;5728;42.722;23.258;2023-04-27T05:10:04;94657.06;;;7.11;67.44
11347;BME280;5728;42.722;23.258;2023-04-27T05:12:31;94653.66;;;7.12;68.67
11347;BME280;5728;42.722;23.258;2023-04-27T05:14:58;94650.94;;;7.33;67.61
11347;BME280;5728;42.722;23.258;2023-04-27T05:17:25;94665.63;;;7.22;67.22
11347;BME280;5728;42.722;23.258;2023-04-27T05:19:52;94663.88;;;7.30;67.25
11347;BME280;5728;42.722;23.258;2023-04-27T05:22:19;94672.13;;;7.86;65.41
11347;BME280;5728;42.722;23.258;2023-04-27T05:24:47;94665.41;;;7.58;65.10
11347;BME280;5728;42.722;23.258;2023-04-27T05:27:14;94667.06;;;7.74;65.00
11347;BME280;5728;42.722;23.258;2023-04-27T05:29:40;94668.97;;;7.42;66.72
11347;BME280;5728;42.722;23.258;2023-04-27T05:32:07;94675.94;;;7.22;65.87
11347;BME280;5728;42.722;23.258;2023-04-27T05:34:34;94664.59;;;7.53;65.00
11347;BME280;5728;42.722;23.258;2023-04-27T05:37:01;94674.97;;;7.41;66.00
11347;BME280;5728;42.722;23.258;2023-04-27T05:39:28;94674.16;;;7.36;66.41
11347;BME280;5728;42.722;23.258;2023-04-27T05:41:56;94672.47;;;7.32;66.07
11347;BME280;5728;42.722;23.258;2023-04-27T05:44:23;94679.38;;;7.27;65.99
11347;BME280;5728;42.722;23.258;2023-04-27T05:46:52;94680.28;;;7.07;66.54
11347;BME280;5728;42.722;23.258;2023-04-27T05:49:20;94673.38;;;7.16;67.01
11347;BME280;5728;42.722;23.258;2023-04-27T05:51:47;94677.50;;;7.53;66.48
11347;BME280;5728;42.722;23.258;2023-04-27T05:54:14;94678.31;;;7.62;65.94
11347;BME280;5728;42.722;23.258;2023-04-27T05:56:40;94699.00;;;7.53;65.51
11347;BME280;5728;42.722;23.258;2023-04-27T05:59:09;94687.63;;;7.83;65.85
11347;BME280;5728;42.722;23.258;2023-04-27T06:01:35;94683.97;;;8.14;62.47
11347;BME280;5728;42.722;23.258;2023-04-27T06:04:02;94684.00;;;8.08;62.27
11347;BME280;5728;42.722;23.258;2023-04-27T06:06:30;94680.59;;;8.06;61.79
11347;BME280;5728;42.722;23.258;2023-04-27T06:08:58;94680.59;;;8.03;62.23
11347;BME280;5728;42.722;23.258;2023-04-27T06:11:24;94672.72;;;8.23;61.63
11347;BME280;5728;42.722;23.258;2023-04-27T06:13:51;94682.09;;;8.36;61.04
11347;BME280;5728;42.722;23.258;2023-04-27T06:16:19;94677.03;;;8.22;60.85
11347;BME280;5728;42.722;23.258;2023-04-27T06:18:47;94691.63;;;8.32;60.67
11347;BME280;5728;42.722;23.258;2023-04-27T06:21:14;94682.63;;;8.76;60.15
11347;BME280;5728;42.722;23.258;2023-04-27T06:23:40;94671.69;;;8.44;59.58
11347;BME280;5728;42.722;23.258;2023-04-27T06:26:07;94661.22;;;8.59;60.36
11347;BME280;5728;42.722;23.258;2023-04-27T06:28:34;94670.44;;;8.84;59.54
11347;BME280;5728;42.722;23.258;2023-04-27T06:31:01;94673.28;;;8.60;59.94
11347;BME280;5728;42.722;23.258;2023-04-27T06:33:29;94669.13;;;8.45;60.07
11347;BME280;5728;42.722;23.258;2023-04-27T06:35:56;94664.69;;;8.61;59.45
11347;BME280;5728;42.722;23.258;2023-04-27T06:38:23;94664.38;;;8.86;59.01
11347;BME280;5728;42.722;23.258;2023-04-27T06:40:50;94669.94;;;9.29;58.82
11347;BME280;5728;42.722;23.258;2023-04-27T06:43:18;94663.22;;;9.82;56.44
11347;BME280;5728;42.722;23.258;2023-04-27T06:45:44;94655.75;;;9.57;55.66
11347;BME280;5728;42.722;23.258;2023-04-27T06:48:11;94660.19;;;10.09;55.79
11347;BME280;5728;42.722;23.258;2023-04-27T06:50:39;94620.81;;;9.25;55.15
11347;BME280;5728;42.722;23.258;2023-04-27T06:53:06;94681.13;;;9.31;56.44
11347;BME280;5728;42.722;23.258;2023-04-27T06:55:33;94665.47;;;9.40;57.05
11347;BME280;5728;42.722;23.258;2023-04-27T06:58:00;94643.91;;;10.01;55.50
11347;BME280;5728;42.722;23.258;2023-04-27T07:00:27;94656.47;;;10.30;53.84
11347;BME280;5728;42.722;23.258;2023-04-27T07:02:54;94654.06;;;10.16;54.43
11347;BME280;5728;42.722;23.258;2023-04-27T07:05:21;94661.81;;;10.19;54.12
11347;BME280;5728;42.722;23.258;2023-04-27T07:07:49;94633.75;;;9.89;55.22
11347;BME280;5728;42.722;23.258;2023-04-27T07:10:16;94648.03;;;10.15;54.66
11347;BME280;5728;42.722;23.258;2023-04-27T07:12:43;94631.28;;;10.36;52.90
11347;BME280;5728;42.722;23.258;2023-04-27T07:15:10;94654.44;;;10.45;51.61
11347;BME280;5728;42.722;23.258;2023-04-27T07:17:37;94651.13;;;10.37;52.36
11347;BME280;5728;42.722;23.258;2023-04-27T07:20:05;94646.03;;;10.81;51.04
11347;BME280;5728;42.722;23.258;2023-04-27T07:22:31;94668.91;;;11.07;50.59
11347;BME280;5728;42.722;23.258;2023-04-27T07:25:00;94657.66;;;10.59;49.97
11347;BME280;5728;42.722;23.258;2023-04-27T07:27:27;94645.22;;;10.78;50.53
11347;BME280;5728;42.722;23.258;2023-04-27T07:29:53;94654.31;;;11.43;50.27
11347;BME280;5728;42.722;23.258;2023-04-27T07:32:21;94650.78;;;11.03;50.83
11347;BME280;5728;42.722;23.258;2023-04-27T07:34:47;94647.88;;;11.62;49.06
11347;BME280;5728;42.722;23.258;2023-04-27T07:37:15;94650.09;;;11.39;47.36
11347;BME280;5728;42.722;23.258;2023-04-27T07:39:42;94645.50;;;11.09;49.66
11347;BME280;5728;42.722;23.258;2023-04-27T07:42:11;94648.50;;;11.32;48.23
11347;BME280;5728;42.722;23.258;2023-04-27T07:44:37;94655.69;;;10.73;48.82
11347;BME280;5728;42.722;23.258;2023-04-27T07:47:05;94654.50;;;10.42;50.68
11347;BME280;5728;42.722;23.258;2023-04-27T07:49:31;94648.00;;;10.67;50.17
11347;BME280;5728;42.722;23.258;2023-04-27T07:51:59;94654.25;;;11.05;49.75
11347;BME280;5728;42.722;23.258;2023-04-27T07:54:26;94663.31;;;11.25;47.97
11347;BME280;5728;42.722;23.258;2023-04-27T07:56:54;94652.13;;;12.04;48.07
11347;BME280;5728;42.722;23.258;2023-04-27T07:59:22;94647.09;;;12.35;47.54
11347;BME280;5728;42.722;23.258;2023-04-27T08:01:48;94618.81;;;13.21;57.87
11347;BME280;5728;42.722;23.258;2023-04-27T08:04:15;94642.09;;;13.86;50.81
11347;BME280;5728;42.722;23.258;2023-04-27T08:06:42;94639.59;;;13.83;45.55
11347;BME280;5728;42.722;23.258;2023-04-27T08:09:10;94643.88;;;13.55;44.88
11347;BME280;5728;42.722;23.258;2023-04-27T08:11:37;94651.63;;;13.58;44.40
11347;BME280;5728;42.722;23.258;2023-04-27T08:14:03;94649.53;;;13.39;45.56
11347;BME280;5728;42.722;23.258;2023-04-27T08:16:34;94651.22;;;13.11;45.25
11347;BME280;5728;42.722;23.258;2023-04-27T08:19:02;94651.88;;;12.84;46.68
11347;BME280;5728;42.722;23.258;2023-04-27T08:21:28;94648.44;;;14.60;51.16
11347;BME280;5728;42.722;23.258;2023-04-27T08:23:55;94635.16;;;14.68;43.63
11347;BME280;5728;42.722;23.258;2023-04-27T08:26:22;94647.66;;;14.32;43.79
11347;BME280;5728;42.722;23.258;2023-04-27T08:28:48;94639.69;;;13.51;44.76
11347;BME280;5728;42.722;23.258;2023-04-27T08:31:15;94648.22;;;13.56;45.39
11347;BME280;5728;42.722;23.258;2023-04-27T08:33:44;94636.00;;;12.95;44.94
11347;BME280;5728;42.722;23.258;2023-04-27T08:36:11;94637.84;;;12.57;47.13
11347;BME280;5728;42.722;23.258;2023-04-27T08:38:38;94658.19;;;12.05;46.61
11347;BME280;5728;42.722;23.258;2023-04-27T08:41:04;94635.44;;;12.14;47.04
11347;BME280;5728;42.722;23.258;2023-04-27T08:43:32;94652.28;;;13.03;46.29
11347;BME280;5728;42.722;23.258;2023-04-27T08:45:59;94639.06;;;13.72;45.63
11347;BME280;5728;42.722;23.258;2023-04-27T08:48:26;94638.19;;;13.42;43.15
11347;BME280;5728;42.722;23.258;2023-04-27T08:50:55;94642.38;;;13.77;44.87
11347;BME280;5728;42.722;23.258;2023-04-27T08:53:22;94650.00;;;12.91;43.54
11347;BME280;5728;42.722;23.258;2023-04-27T08:55:49;94641.47;;;13.18;45.71
11347;BME280;5728;42.722;23.258;2023-04-27T08:58:16;94635.31;;;14.37;45.60
11347;BME280;5728;42.722;23.258;2023-04-27T09:00:43;94658.00;;;14.06;43.44
11347;BME280;5728;42.722;23.258;2023-04-27T09:03:21;94645.91;;;14.59;42.33
11347;BME280;5728;42.722;23.258;2023-04-27T09:05:48;94639.47;;;14.95;41.00
11347;BME280;5728;42.722;23.258;2023-04-27T09:08:16;94637.84;;;14.11;40.87
11347;BME280;5728;42.722;23.258;2023-04-27T09:10:44;94630.78;;;13.87;42.27
11347;BME280;5728;42.722;23.258;2023-04-27T09:13:11;94640.84;;;13.99;42.51
11347;BME280;5728;42.722;23.258;2023-04-27T09:15:43;94638.66;;;14.13;41.54
11347;BME280;5728;42.722;23.258;2023-04-27T09:18:17;94632.94;;;14.02;41.75
11347;BME280;5728;42.722;23.258;2023-04-27T09:20:44;94623.84;;;13.27;42.50
11347;BME280;5728;42.722;23.258;2023-04-27T09:23:24;94624.41;;;13.97;43.68
11347;BME280;5728;42.722;23.258;2023-04-27T09:25:52;94639.97;;;13.09;43.97
11347;BME280;5728;42.722;23.258;2023-04-27T09:28:19;94624.13;;;13.48;43.56
11347;BME280;5728;42.722;23.258;2023-04-27T09:30:51;94632.78;;;13.77;41.62
11347;BME280;5728;42.722;23.258;2023-04-27T09:33:23;94634.97;;;13.63;43.32
11347;BME280;5728;42.722;23.258;2023-04-27T09:35:50;94602.06;;;13.31;41.93
11347;BME280;5728;42.722;23.258;2023-04-27T09:38:20;94617.63;;;14.18;41.40
11347;BME280;5728;42.722;23.258;2023-04-27T09:40:48;94625.91;;;13.75;42.23
11347;BME280;5728;42.722;23.258;2023-04-27T09:43:15;94607.19;;;14.45;41.70
11347;BME280;5728;42.722;23.258;2023-04-27T09:45:42;94616.34;;;14.04;41.44
11347;BME280;5728;42.722;23.258;2023-04-27T09:48:11;94613.91;;;13.41;43.20
11347;BME280;5728;42.722;23.258;2023-04-27T09:50:40;94598.50;;;13.91;42.35
11347;BME280;5728;42.722;23.258;2023-04-27T09:53:09;94610.13;;;13.81;42.43
11347;BME280;5728;42.722;23.258;2023-04-27T09:55:40;94605.44;;;13.92;41.29
11347;BME280;5728;42.722;23.258;2023-04-27T09:58:31;94605.91;;;14.32;38.47
11347;BME280;5728;42.722;23.258;2023-04-27T10:01:12;94608.34;;;13.23;42.59
11347;BME280;5728;42.722;23.258;2023-04-27T10:03:51;94607.69;;;13.16;43.99
11347;BME280;5728;42.722;23.258;2023-04-27T10:06:52;94604.00;;;13.82;42.00
11347;BME280;5728;42.722;23.258;2023-04-27T10:09:23;94605.41;;;14.47;39.43
11347;BME280;5728;42.722;23.258;2023-04-27T10:11:53;94591.44;;;14.48;40.88
11347;BME280;5728;42.722;23.258;2023-04-27T10:14:21;94578.03;;;15.56;38.95
11347;BME280;5728;42.722;23.258;2023-04-27T10:16:50;94606.97;;;15.96;37.57
11347;BME280;5728;42.722;23.258;2023-04-27T10:19:17;94598.03;;;15.80;36.10
11347;BME280;5728;42.722;23.258;2023-04-27T10:21:55;94598.34;;;15.94;37.14
11347;BME280;5728;42.722;23.258;2023-04-27T10:24:36;94598.41;;;15.48;37.06
11347;BME280;5728;42.722;23.258;2023-04-27T10:27:05;94599.91;;;15.98;37.88
11347;BME280;5728;42.722;23.258;2023-04-27T10:29:37;94585.03;;;15.56;36.15
11347;BME280;5728;42.722;23.258;2023-04-27T10:32:09;94591.47;;;15.92;35.91
11347;BME280;5728;42.722;23.258;2023-04-27T10:34:37;94610.94;;;15.62;36.14
11347;BME280;5728;42.722;23.258;2023-04-27T10:37:05;94587.06;;;16.16;35.68
11347;BME280;5728;42.722;23.258;2023-04-27T10:39:34;94594.41;;;16.91;37.04
11347;BME280;5728;42.722;23.258;2023-04-27T10:42:04;94601.66;;;15.76;34.38
11347;BME280;5728;42.722;23.258;2023-04-27T10:44:33;94586.97;;;15.03;36.85
11347;BME280;5728;42.722;23.258;2023-04-27T10:47:11;94595.31;;;16.05;34.77
11347;BME280;5728;42.722;23.258;2023-04-27T10:49:38;94590.94;;;16.06;35.06
11347;BME280;5728;42.722;23.258;2023-04-27T10:52:05;94585.38;;;15.91;34.67
11347;BME280;5728;42.722;23.258;2023-04-27T10:54:33;94578.59;;;16.31;35.45
11347;BME280;5728;42.722;23.258;2023-04-27T10:57:06;94598.84;;;16.47;33.67
11347;BME280;5728;42.722;23.258;2023-04-27T10:59:46;94599.72;;;16.46;33.31
11347;BME280;5728;42.722;23.258;2023-04-27T11:02:14;94586.19;;;16.37;34.50
11347;BME280;5728;42.722;23.258;2023-04-27T11:04:41;94594.31;;;15.40;35.43
11347;BME280;5728;42.722;23.258;2023-04-27T11:07:08;94588.69;;;15.73;36.14
11347;BME280;5728;42.722;23.258;2023-04-27T11:09:38;94601.03;;;14.20;37.74
11347;BME280;5728;42.722;23.258;2023-04-27T11:12:07;94594.16;;;14.72;37.07
11347;BME280;5728;42.722;23.258;2023-04-27T11:14:37;94587.19;;;14.46;37.83
11347;BME280;5728;42.722;23.258;2023-04-27T11:17:04;94591.34;;;15.50;36.62
11347;BME280;5728;42.722;23.258;2023-04-27T11:19:31;94596.50;;;15.04;36.85
11347;BME280;5728;42.722;23.258;2023-04-27T11:22:02;94590.69;;;14.71;37.90
11347;BME280;5728;42.722;23.258;2023-04-27T11:24:29;94598.84;;;14.87;38.15
11347;BME280;5728;42.722;23.258;2023-04-27T11:26:56;94588.50;;;15.08;36.91
11347;BME280;5728;42.722;23.258;2023-04-27T11:29:24;94601.53;;;15.33;36.61
11347;BME280;5728;42.722;23.258;2023-04-27T11:31:51;94595.88;;;14.97;38.47
11347;BME280;5728;42.722;23.258;2023-04-27T11:34:20;94600.66;;;15.80;39.60
11347;BME280;5728;42.722;23.258;2023-04-27T11:37:05;94604.38;;;15.27;36.06
11347;BME280;5728;42.722;23.258;2023-04-27T11:39:33;94600.84;;;14.79;37.16
11347;BME280;5728;42.722;23.258;2023-04-27T11:42:15;94591.78;;;14.39;36.95
11347;BME280;5728;42.722;23.258;2023-04-27T11:44:50;94599.97;;;15.52;36.42
11347;BME280;5728;42.722;23.258;2023-04-27T11:47:17;94594.97;;;15.69;36.96
11347;BME280;5728;42.722;23.258;2023-04-27T11:49:46;94601.16;;;15.19;36.91
11347;BME280;5728;42.722;23.258;2023-04-27T11:52:13;94606.16;;;16.18;35.69
11347;BME280;5728;42.722;23.258;2023-04-27T11:54:46;94608.84;;;15.23;37.53
11347;BME280;5728;42.722;23.258;2023-04-27T11:57:13;94608.97;;;16.13;36.39
11347;BME280;5728;42.722;23.258;2023-04-27T11:59:40;94612.28;;;16.17;34.34
11347;BME280;5728;42.722;23.258;2023-04-27T12:02:09;94608.50;;;15.57;36.09
11347;BME280;5728;42.722;23.258;2023-04-27T12:04:36;94607.56;;;15.35;37.01
11347;BME280;5728;42.722;23.258;2023-04-27T12:07:03;94604.91;;;15.12;36.21
11347;BME280;5728;42.722;23.258;2023-04-27T12:09:30;94618.72;;;15.63;36.43
11347;BME280;5728;42.722;23.258;2023-04-27T12:11:56;94610.38;;;16.85;35.36
11347;BME280;5728;42.722;23.258;2023-04-27T12:14:23;94595.31;;;16.48;35.30
11347;BME280;5728;42.722;23.258;2023-04-27T12:16:50;94601.88;;;17.00;34.72
11347;BME280;5728;42.722;23.258;2023-04-27T12:19:19;94612.63;;;16.31;34.52
11347;BME280;5728;42.722;23.258;2023-04-27T12:21:48;94613.06;;;15.75;35.09
11347;BME280;5728;42.722;23.258;2023-04-27T12:24:15;94619.28;;;15.94;35.18
11347;BME280;5728;42.722;23.258;2023-04-27T12:26:42;94615.69;;;15.03;37.15
11347;BME280;5728;42.722;23.258;2023-04-27T12:29:08;94606.28;;;15.22;37.24
11347;BME280;5728;42.722;23.258;2023-04-27T12:31:36;94612.38;;;15.47;35.97
11347;BME280;5728;42.722;23.258;2023-04-27T12:34:02;94625.84;;;15.60;35.06
11347;BME280;5728;42.722;23.258;2023-04-27T12:36:31;94609.28;;;14.87;36.48
11347;BME280;5728;42.722;23.258;2023-04-27T12:38:59;94617.44;;;15.27;37.18
11347;BME280;5728;42.722;23.258;2023-04-27T12:41:37;94613.63;;;15.60;37.46
11347;BME280;5728;42.722;23.258;2023-04-27T12:44:04;94614.41;;;15.14;36.84
11347;BME280;5728;42.722;23.258;2023-04-27T12:46:31;94595.53;;;14.82;36.91
11347;BME280;5728;42.722;23.258;2023-04-27T12:48:58;94611.88;;;15.11;37.30
11347;BME280;5728;42.722;23.258;2023-04-27T12:51:26;94635.00;;;15.48;35.93
11347;BME280;5728;42.722;23.258;2023-04-27T12:53:55;94601.97;;;15.44;36.08
11347;BME280;5728;42.722;23.258;2023-04-27T12:56:21;94612.16;;;16.20;38.64
11347;BME280;5728;42.722;23.258;2023-04-27T12:58:49;94609.56;;;15.52;35.50
11347;BME280;5728;42.722;23.258;2023-04-27T13:01:16;94614.34;;;15.16;38.55
11347;BME280;5728;42.722;23.258;2023-04-27T13:03:43;94599.34;;;15.21;38.67
11347;BME280;5728;42.722;23.258;2023-04-27T13:06:11;94603.69;;;15.91;38.51
11347;BME280;5728;42.722;23.258;2023-04-27T13:08:38;94611.16;;;15.31;36.62